sensor_id;sensor_type;location;lat;lon;timestamp;P1;durP1;ratioP1;P2;durP2;ratioP2
19599;SDS011;9947;57.722;12.012;2022-11-25T00:00:08;30.33;;;15.00;;
19599;SDS011;9947;57.722;12.012;2022-11-25T00:02:41;37.37;;;16.50;;
19599;SDS011;9947;57.722;12.012;2022-11-25T00:05:08;34.43;;;15.47;;
19599;SDS011;9947;57.722;12.012;2022-11-25T00:07:36;36.93;;;16.43;;
19599;SDS011;9947;57.722;12.012;2022-11-25T00:10:04;36.37;;;15.67;;
19599;SDS011;9947;57.722;12.012;2022-11-25T00:12:32;32.50;;;15.00;;
19599;SDS011;9947;57.722;12.012;2022-11-25T00:14:59;36.00;;;15.67;;
19599;SDS011;9947;57.722;12.012;2022-11-25T00:17:28;38.97;;;15.47;;
19599;SDS011;9947;57.722;12.012;2022-11-25T00:19:55;35.40;;;15.30;;
19599;SDS011;9947;57.722;12.012;2022-11-25T00:22:25;36.63;;;15.57;;
19599;SDS011;9947;57.722;12.012;2022-11-25T00:24:53;36.67;;;16.90;;
19599;SDS011;9947;57.722;12.012;2022-11-25T00:27:23;34.97;;;15.57;;
19599;SDS011;9947;57.722;12.012;2022-11-25T00:29:50;38.97;;;16.33;;
19599;SDS011;9947;57.722;12.012;2022-11-25T00:32:17;33.90;;;15.67;;
19599;SDS011;9947;57.722;12.012;2022-11-25T00:34:44;38.90;;;15.00;;
19599;SDS011;9947;57.722;12.012;2022-11-25T00:37:12;33.50;;;15.37;;
19599;SDS011;9947;57.722;12.012;2022-11-25T00:39:38;32.93;;;15.73;;
19599;SDS011;9947;57.722;12.012;2022-11-25T00:42:07;35.33;;;14.50;;
19599;SDS011;9947;57.722;12.012;2022-11-25T00:44:51;34.87;;;14.83;;
19599;SDS011;9947;57.722;12.012;2022-11-25T00:47:19;37.67;;;15.87;;
19599;SDS011;9947;57.722;12.012;2022-11-25T00:49:47;33.40;;;14.40;;
19599;SDS011;9947;57.722;12.012;2022-11-25T00:52:16;36.53;;;15.70;;
19599;SDS011;9947;57.722;12.012;2022-11-25T00:54:45;33.43;;;15.03;;
19599;SDS011;9947;57.722;12.012;2022-11-25T00:57:19;41.63;;;16.07;;
19599;SDS011;9947;57.722;12.012;2022-11-25T00:59:47;31.27;;;14.23;;
19599;SDS011;9947;57.722;12.012;2022-11-25T01:02:14;37.10;;;15.43;;
19599;SDS011;9947;57.722;12.012;2022-11-25T01:04:42;35.60;;;15.10;;
19599;SDS011;9947;57.722;12.012;2022-11-25T01:07:08;39.47;;;14.93;;
19599;SDS011;9947;57.722;12.012;2022-11-25T01:09:36;38.77;;;15.83;;
19599;SDS011;9947;57.722;12.012;2022-11-25T01:12:03;32.33;;;15.43;;
19599;SDS011;9947;57.722;12.012;2022-11-25T01:14:31;37.57;;;15.77;;
19599;SDS011;9947;57.722;12.012;2022-11-25T01:16:58;36.33;;;15.97;;
19599;SDS011;9947;57.722;12.012;2022-11-25T01:19:25;40.40;;;15.90;;
19599;SDS011;9947;57.722;12.012;2022-11-25T01:21:52;34.03;;;15.23;;
19599;SDS011;9947;57.722;12.012;2022-11-25T01:24:19;36.67;;;16.47;;
19599;SDS011;9947;57.722;12.012;2022-11-25T01:26:45;34.60;;;15.00;;
19599;SDS011;9947;57.722;12.012;2022-11-25T01:29:13;35.40;;;14.63;;
19599;SDS011;9947;57.722;12.012;2022-11-25T01:31:43;40.27;;;15.07;;
19599;SDS011;9947;57.722;12.012;2022-11-25T01:34:11;34.10;;;15.43;;
19599;SDS011;9947;57.722;12.012;2022-11-25T01:36:40;37.10;;;15.30;;
19599;SDS011;9947;57.722;12.012;2022-11-25T01:39:07;39.17;;;15.80;;
19599;SDS011;9947;57.722;12.012;2022-11-25T01:41:42;34.30;;;15.63;;
19599;SDS011;9947;57.722;12.012;2022-11-25T01:44:13;38.13;;;14.57;;
19599;SDS011;9947;57.722;12.012;2022-11-25T01:49:40;35.77;;;15.80;;
19599;SDS011;9947;57.722;12.012;2022-11-25T01:52:15;36.47;;;15.70;;
19599;SDS011;9947;57.722;12.012;2022-11-25T01:54:52;42.33;;;15.73;;
19599;SDS011;9947;57.722;12.012;2022-11-25T01:57:25;34.77;;;14.20;;
19599;SDS011;9947;57.722;12.012;2022-11-25T01:59:58;31.80;;;14.43;;
19599;SDS011;9947;57.722;12.012;2022-11-25T02:02:34;35.83;;;15.47;;
19599;SDS011;9947;57.722;12.012;2022-11-25T02:05:03;40.77;;;15.33;;
19599;SDS011;9947;57.722;12.012;2022-11-25T02:07:36;36.90;;;14.77;;
19599;SDS011;9947;57.722;12.012;2022-11-25T02:10:08;31.13;;;14.43;;
19599;SDS011;9947;57.722;12.012;2022-11-25T02:12:39;35.60;;;14.80;;
19599;SDS011;9947;57.722;12.012;2022-11-25T02:15:10;40.87;;;15.83;;
19599;SDS011;9947;57.722;12.012;2022-11-25T02:17:40;34.63;;;15.57;;
19599;SDS011;9947;57.722;12.012;2022-11-25T02:20:09;30.97;;;15.07;;
19599;SDS011;9947;57.722;12.012;2022-11-25T02:22:45;32.30;;;13.87;;
19599;SDS011;9947;57.722;12.012;2022-11-25T02:25:20;29.70;;;13.67;;
19599;SDS011;9947;57.722;12.012;2022-11-25T02:27:51;36.10;;;14.57;;
19599;SDS011;9947;57.722;12.012;2022-11-25T02:30:23;35.03;;;14.27;;
19599;SDS011;9947;57.722;12.012;2022-11-25T02:32:56;34.13;;;14.40;;
19599;SDS011;9947;57.722;12.012;2022-11-25T02:35:26;35.20;;;14.90;;
19599;SDS011;9947;57.722;12.012;2022-11-25T02:37:59;30.40;;;14.13;;
19599;SDS011;9947;57.722;12.012;2022-11-25T02:40:31;30.63;;;14.43;;
19599;SDS011;9947;57.722;12.012;2022-11-25T02:43:02;28.73;;;13.50;;
19599;SDS011;9947;57.722;12.012;2022-11-25T02:45:40;31.43;;;13.03;;
19599;SDS011;9947;57.722;12.012;2022-11-25T02:48:12;30.80;;;12.80;;
19599;SDS011;9947;57.722;12.012;2022-11-25T02:50:40;30.30;;;13.60;;
19599;SDS011;9947;57.722;12.012;2022-11-25T02:53:07;32.50;;;13.60;;
19599;SDS011;9947;57.722;12.012;2022-11-25T02:55:35;26.00;;;12.13;;
19599;SDS011;9947;57.722;12.012;2022-11-25T02:58:02;25.97;;;12.33;;
19599;SDS011;9947;57.722;12.012;2022-11-25T03:00:29;26.37;;;11.40;;
19599;SDS011;9947;57.722;12.012;2022-11-25T03:02:55;28.83;;;12.50;;
19599;SDS011;9947;57.722;12.012;2022-11-25T03:05:22;24.43;;;10.97;;
19599;SDS011;9947;57.722;12.012;2022-11-25T03:07:49;24.87;;;11.83;;
19599;SDS011;9947;57.722;12.012;2022-11-25T03:10:16;26.20;;;11.47;;
19599;SDS011;9947;57.722;12.012;2022-11-25T03:12:45;23.60;;;12.20;;
19599;SDS011;9947;57.722;12.012;2022-11-25T03:15:12;29.80;;;11.43;;
19599;SDS011;9947;57.722;12.012;2022-11-25T03:17:39;24.20;;;11.50;;
19599;SDS011;9947;57.722;12.012;2022-11-25T03:20:06;21.80;;;10.90;;
19599;SDS011;9947;57.722;12.012;2022-11-25T03:22:34;24.37;;;11.67;;
19599;SDS011;9947;57.722;12.012;2022-11-25T03:25:01;23.83;;;11.10;;
19599;SDS011;9947;57.722;12.012;2022-11-25T03:27:28;23.80;;;11.33;;
19599;SDS011;9947;57.722;12.012;2022-11-25T03:29:56;21.43;;;11.27;;
19599;SDS011;9947;57.722;12.012;2022-11-25T03:32:23;23.33;;;11.00;;
19599;SDS011;9947;57.722;12.012;2022-11-25T03:34:50;21.40;;;10.47;;
19599;SDS011;9947;57.722;12.012;2022-11-25T03:37:17;17.13;;;9.87;;
19599;SDS011;9947;57.722;12.012;2022-11-25T03:39:46;25.87;;;10.93;;
19599;SDS011;9947;57.722;12.012;2022-11-25T03:42:12;21.63;;;10.67;;
19599;SDS011;9947;57.722;12.012;2022-11-25T03:44:39;20.93;;;9.87;;
19599;SDS011;9947;57.722;12.012;2022-11-25T03:47:07;20.57;;;9.90;;
19599;SDS011;9947;57.722;12.012;2022-11-25T03:49:34;22.40;;;9.90;;
19599;SDS011;9947;57.722;12.012;2022-11-25T03:52:01;21.53;;;9.80;;
19599;SDS011;9947;57.722;12.012;2022-11-25T03:54:28;20.70;;;9.93;;
19599;SDS011;9947;57.722;12.012;2022-11-25T03:56:56;22.33;;;10.17;;
19599;SDS011;9947;57.722;12.012;2022-11-25T03:59:22;22.47;;;10.73;;
19599;SDS011;9947;57.722;12.012;2022-11-25T04:01:50;20.73;;;9.80;;
19599;SDS011;9947;57.722;12.012;2022-11-25T04:04:18;26.20;;;9.70;;
19599;SDS011;9947;57.722;12.012;2022-11-25T04:06:45;20.57;;;9.70;;
19599;SDS011;9947;57.722;12.012;2022-11-25T04:09:12;21.03;;;9.90;;
19599;SDS011;9947;57.722;12.012;2022-11-25T04:11:39;20.10;;;9.30;;
19599;SDS011;9947;57.722;12.012;2022-11-25T04:14:35;21.63;;;9.50;;
19599;SDS011;9947;57.722;12.012;2022-11-25T04:17:02;23.03;;;10.53;;
19599;SDS011;9947;57.722;12.012;2022-11-25T04:19:30;21.20;;;10.20;;
19599;SDS011;9947;57.722;12.012;2022-11-25T04:21:57;21.07;;;10.90;;
19599;SDS011;9947;57.722;12.012;2022-11-25T04:24:25;22.33;;;10.37;;
19599;SDS011;9947;57.722;12.012;2022-11-25T04:26:52;24.03;;;10.80;;
19599;SDS011;9947;57.722;12.012;2022-11-25T04:29:19;20.93;;;10.73;;
19599;SDS011;9947;57.722;12.012;2022-11-25T04:31:46;21.20;;;9.93;;
19599;SDS011;9947;57.722;12.012;2022-11-25T04:34:13;19.80;;;9.80;;
19599;SDS011;9947;57.722;12.012;2022-11-25T04:36:41;20.60;;;9.57;;
19599;SDS011;9947;57.722;12.012;2022-11-25T04:39:08;22.07;;;9.57;;
19599;SDS011;9947;57.722;12.012;2022-11-25T04:41:35;17.57;;;9.77;;
19599;SDS011;9947;57.722;12.012;2022-11-25T04:44:01;21.23;;;9.70;;
19599;SDS011;9947;57.722;12.012;2022-11-25T04:46:30;20.10;;;9.73;;
19599;SDS011;9947;57.722;12.012;2022-11-25T04:49:02;22.13;;;10.17;;
19599;SDS011;9947;57.722;12.012;2022-11-25T04:51:29;19.70;;;9.67;;
19599;SDS011;9947;57.722;12.012;2022-11-25T04:53:57;19.97;;;10.17;;
19599;SDS011;9947;57.722;12.012;2022-11-25T04:56:26;19.93;;;9.60;;
19599;SDS011;9947;57.722;12.012;2022-11-25T04:58:53;19.90;;;9.67;;
19599;SDS011;9947;57.722;12.012;2022-11-25T05:01:37;20.20;;;9.97;;
19599;SDS011;9947;57.722;12.012;2022-11-25T05:04:04;19.80;;;10.20;;
19599;SDS011;9947;57.722;12.012;2022-11-25T05:06:31;18.03;;;9.10;;
19599;SDS011;9947;57.722;12.012;2022-11-25T05:08:59;19.30;;;10.23;;
19599;SDS011;9947;57.722;12.012;2022-11-25T05:11:26;18.10;;;9.60;;
19599;SDS011;9947;57.722;12.012;2022-11-25T05:13:52;17.10;;;8.83;;
19599;SDS011;9947;57.722;12.012;2022-11-25T05:16:19;18.33;;;9.67;;
19599;SDS011;9947;57.722;12.012;2022-11-25T05:18:46;20.27;;;9.40;;
19599;SDS011;9947;57.722;12.012;2022-11-25T05:21:13;18.07;;;8.50;;
19599;SDS011;9947;57.722;12.012;2022-11-25T05:23:39;22.43;;;9.80;;
19599;SDS011;9947;57.722;12.012;2022-11-25T05:26:08;18.10;;;9.67;;
19599;SDS011;9947;57.722;12.012;2022-11-25T05:28:34;19.43;;;9.57;;
19599;SDS011;9947;57.722;12.012;2022-11-25T05:31:01;20.43;;;9.40;;
19599;SDS011;9947;57.722;12.012;2022-11-25T05:33:28;20.23;;;10.10;;
19599;SDS011;9947;57.722;12.012;2022-11-25T05:35:55;18.60;;;9.17;;
19599;SDS011;9947;57.722;12.012;2022-11-25T05:38:23;18.70;;;9.67;;
19599;SDS011;9947;57.722;12.012;2022-11-25T05:40:50;20.87;;;9.03;;
19599;SDS011;9947;57.722;12.012;2022-11-25T05:43:19;18.50;;;9.43;;
19599;SDS011;9947;57.722;12.012;2022-11-25T05:45:46;20.27;;;9.27;;
19599;SDS011;9947;57.722;12.012;2022-11-25T05:48:13;18.60;;;8.73;;
19599;SDS011;9947;57.722;12.012;2022-11-25T05:50:40;18.63;;;9.13;;
19599;SDS011;9947;57.722;12.012;2022-11-25T05:53:07;19.67;;;9.10;;
19599;SDS011;9947;57.722;12.012;2022-11-25T05:55:34;17.70;;;8.80;;
19599;SDS011;9947;57.722;12.012;2022-11-25T05:58:00;17.47;;;9.10;;
19599;SDS011;9947;57.722;12.012;2022-11-25T06:00:30;18.67;;;8.63;;
19599;SDS011;9947;57.722;12.012;2022-11-25T06:02:57;17.90;;;8.70;;
19599;SDS011;9947;57.722;12.012;2022-11-25T06:05:24;16.23;;;8.63;;
19599;SDS011;9947;57.722;12.012;2022-11-25T06:07:51;16.80;;;8.70;;
19599;SDS011;9947;57.722;12.012;2022-11-25T06:10:18;18.10;;;8.73;;
19599;SDS011;9947;57.722;12.012;2022-11-25T06:12:45;17.47;;;8.70;;
19599;SDS011;9947;57.722;12.012;2022-11-25T06:15:12;20.67;;;8.40;;
19599;SDS011;9947;57.722;12.012;2022-11-25T06:17:40;18.00;;;7.97;;
19599;SDS011;9947;57.722;12.012;2022-11-25T06:20:07;18.60;;;8.43;;
19599;SDS011;9947;57.722;12.012;2022-11-25T06:22:34;17.13;;;8.27;;
19599;SDS011;9947;57.722;12.012;2022-11-25T06:25:01;15.47;;;7.70;;
19599;SDS011;9947;57.722;12.012;2022-11-25T06:27:28;16.60;;;8.30;;
19599;SDS011;9947;57.722;12.012;2022-11-25T06:29:55;15.87;;;8.03;;
19599;SDS011;9947;57.722;12.012;2022-11-25T06:32:22;16.50;;;8.37;;
19599;SDS011;9947;57.722;12.012;2022-11-25T06:34:50;18.13;;;8.80;;
19599;SDS011;9947;57.722;12.012;2022-11-25T06:37:17;14.97;;;8.17;;
19599;SDS011;9947;57.722;12.012;2022-11-25T06:39:43;14.57;;;8.10;;
19599;SDS011;9947;57.722;12.012;2022-11-25T06:42:10;14.40;;;7.83;;
19599;SDS011;9947;57.722;12.012;2022-11-25T06:44:37;12.73;;;7.80;;
19599;SDS011;9947;57.722;12.012;2022-11-25T06:47:04;13.53;;;7.13;;
19599;SDS011;9947;57.722;12.012;2022-11-25T06:49:30;13.87;;;8.33;;
19599;SDS011;9947;57.722;12.012;2022-11-25T06:51:58;14.30;;;8.10;;
19599;SDS011;9947;57.722;12.012;2022-11-25T06:54:25;13.93;;;7.60;;
19599;SDS011;9947;57.722;12.012;2022-11-25T06:56:52;13.90;;;7.60;;
19599;SDS011;9947;57.722;12.012;2022-11-25T06:59:19;15.77;;;7.97;;
19599;SDS011;9947;57.722;12.012;2022-11-25T07:01:46;15.70;;;7.87;;
19599;SDS011;9947;57.722;12.012;2022-11-25T07:04:13;12.87;;;6.97;;
19599;SDS011;9947;57.722;12.012;2022-11-25T07:06:40;14.43;;;7.57;;
19599;SDS011;9947;57.722;12.012;2022-11-25T07:09:08;12.90;;;7.23;;
19599;SDS011;9947;57.722;12.012;2022-11-25T07:11:35;12.87;;;7.13;;
19599;SDS011;9947;57.722;12.012;2022-11-25T07:14:05;14.07;;;7.23;;
19599;SDS011;9947;57.722;12.012;2022-11-25T07:16:33;15.77;;;7.30;;
19599;SDS011;9947;57.722;12.012;2022-11-25T07:19:00;12.80;;;7.13;;
19599;SDS011;9947;57.722;12.012;2022-11-25T07:21:28;13.20;;;6.93;;
19599;SDS011;9947;57.722;12.012;2022-11-25T07:23:57;11.80;;;6.43;;
19599;SDS011;9947;57.722;12.012;2022-11-25T07:26:27;12.77;;;7.07;;
19599;SDS011;9947;57.722;12.012;2022-11-25T07:28:57;9.73;;;6.10;;
19599;SDS011;9947;57.722;12.012;2022-11-25T07:31:25;14.07;;;6.80;;
19599;SDS011;9947;57.722;12.012;2022-11-25T07:33:55;10.50;;;6.67;;
19599;SDS011;9947;57.722;12.012;2022-11-25T07:36:23;11.30;;;6.73;;
19599;SDS011;9947;57.722;12.012;2022-11-25T07:38:51;10.80;;;6.37;;
19599;SDS011;9947;57.722;12.012;2022-11-25T07:41:18;12.37;;;6.40;;
19599;SDS011;9947;57.722;12.012;2022-11-25T07:43:49;9.73;;;6.13;;
19599;SDS011;9947;57.722;12.012;2022-11-25T07:46:18;11.50;;;6.83;;
19599;SDS011;9947;57.722;12.012;2022-11-25T07:48:46;10.17;;;6.33;;
19599;SDS011;9947;57.722;12.012;2022-11-25T07:51:15;9.20;;;6.23;;
19599;SDS011;9947;57.722;12.012;2022-11-25T07:53:43;10.63;;;5.80;;
19599;SDS011;9947;57.722;12.012;2022-11-25T07:56:10;10.77;;;6.43;;
19599;SDS011;9947;57.722;12.012;2022-11-25T07:58:37;9.10;;;5.90;;
19599;SDS011;9947;57.722;12.012;2022-11-25T08:01:06;11.40;;;6.50;;
19599;SDS011;9947;57.722;12.012;2022-11-25T08:03:35;9.63;;;6.27;;
19599;SDS011;9947;57.722;12.012;2022-11-25T08:06:03;13.80;;;6.23;;
19599;SDS011;9947;57.722;12.012;2022-11-25T08:08:32;10.17;;;6.60;;
19599;SDS011;9947;57.722;12.012;2022-11-25T08:10:59;9.83;;;6.00;;
19599;SDS011;9947;57.722;12.012;2022-11-25T08:13:26;9.87;;;6.37;;
19599;SDS011;9947;57.722;12.012;2022-11-25T08:15:53;9.47;;;5.97;;
19599;SDS011;9947;57.722;12.012;2022-11-25T08:18:21;10.27;;;6.07;;
19599;SDS011;9947;57.722;12.012;2022-11-25T08:20:48;8.37;;;5.73;;
19599;SDS011;9947;57.722;12.012;2022-11-25T08:23:14;10.37;;;6.13;;
19599;SDS011;9947;57.722;12.012;2022-11-25T08:25:41;10.13;;;6.23;;
19599;SDS011;9947;57.722;12.012;2022-11-25T08:28:09;10.07;;;5.53;;
19599;SDS011;9947;57.722;12.012;2022-11-25T08:30:38;8.73;;;5.47;;
19599;SDS011;9947;57.722;12.012;2022-11-25T08:33:05;9.27;;;5.70;;
19599;SDS011;9947;57.722;12.012;2022-11-25T08:35:34;7.83;;;6.00;;
19599;SDS011;9947;57.722;12.012;2022-11-25T08:38:02;8.80;;;5.70;;
19599;SDS011;9947;57.722;12.012;2022-11-25T08:40:30;7.87;;;5.67;;
19599;SDS011;9947;57.722;12.012;2022-11-25T08:42:57;7.77;;;5.20;;
19599;SDS011;9947;57.722;12.012;2022-11-25T08:45:23;9.97;;;5.73;;
19599;SDS011;9947;57.722;12.012;2022-11-25T08:47:50;9.87;;;5.63;;
19599;SDS011;9947;57.722;12.012;2022-11-25T08:50:17;9.40;;;6.20;;
19599;SDS011;9947;57.722;12.012;2022-11-25T08:52:46;9.90;;;5.90;;
19599;SDS011;9947;57.722;12.012;2022-11-25T08:55:12;8.50;;;5.70;;
19599;SDS011;9947;57.722;12.012;2022-11-25T08:57:39;8.10;;;5.50;;
19599;SDS011;9947;57.722;12.012;2022-11-25T09:00:06;8.53;;;5.53;;
19599;SDS011;9947;57.722;12.012;2022-11-25T09:02:34;7.43;;;5.20;;
19599;SDS011;9947;57.722;12.012;2022-11-25T09:05:01;8.83;;;5.67;;
19599;SDS011;9947;57.722;12.012;2022-11-25T09:07:28;10.70;;;6.40;;
19599;SDS011;9947;57.722;12.012;2022-11-25T09:09:56;8.77;;;5.87;;
19599;SDS011;9947;57.722;12.012;2022-11-25T09:12:24;8.07;;;5.50;;
19599;SDS011;9947;57.722;12.012;2022-11-25T09:14:50;8.97;;;6.07;;
19599;SDS011;9947;57.722;12.012;2022-11-25T09:17:17;10.37;;;5.60;;
19599;SDS011;9947;57.722;12.012;2022-11-25T09:19:44;8.47;;;5.73;;
19599;SDS011;9947;57.722;12.012;2022-11-25T09:22:11;10.90;;;5.63;;
19599;SDS011;9947;57.722;12.012;2022-11-25T09:24:40;7.87;;;5.20;;
19599;SDS011;9947;57.722;12.012;2022-11-25T09:27:10;7.40;;;5.17;;
19599;SDS011;9947;57.722;12.012;2022-11-25T09:29:37;8.27;;;5.00;;
19599;SDS011;9947;57.722;12.012;2022-11-25T09:32:04;8.87;;;5.30;;
19599;SDS011;9947;57.722;12.012;2022-11-25T09:34:31;7.07;;;4.87;;
19599;SDS011;9947;57.722;12.012;2022-11-25T09:36:57;7.97;;;5.60;;
19599;SDS011;9947;57.722;12.012;2022-11-25T09:39:24;7.30;;;5.27;;
19599;SDS011;9947;57.722;12.012;2022-11-25T09:41:57;7.27;;;5.30;;
19599;SDS011;9947;57.722;12.012;2022-11-25T09:44:54;8.57;;;5.43;;
19599;SDS011;9947;57.722;12.012;2022-11-25T09:47:49;7.40;;;5.17;;
19599;SDS011;9947;57.722;12.012;2022-11-25T09:50:28;8.27;;;4.97;;
19599;SDS011;9947;57.722;12.012;2022-11-25T09:53:15;8.73;;;5.20;;
19599;SDS011;9947;57.722;12.012;2022-11-25T09:55:53;7.27;;;5.23;;
19599;SDS011;9947;57.722;12.012;2022-11-25T09:58:29;10.37;;;5.40;;
19599;SDS011;9947;57.722;12.012;2022-11-25T10:01:01;7.70;;;5.13;;
19599;SDS011;9947;57.722;12.012;2022-11-25T10:03:32;9.43;;;5.60;;
19599;SDS011;9947;57.722;12.012;2022-11-25T10:06:05;6.97;;;5.20;;
19599;SDS011;9947;57.722;12.012;2022-11-25T10:08:39;7.80;;;5.40;;
19599;SDS011;9947;57.722;12.012;2022-11-25T10:11:13;8.73;;;5.70;;
19599;SDS011;9947;57.722;12.012;2022-11-25T10:13:47;9.23;;;5.33;;
19599;SDS011;9947;57.722;12.012;2022-11-25T10:16:26;9.77;;;6.30;;
19599;SDS011;9947;57.722;12.012;2022-11-25T10:18:58;8.97;;;5.73;;
19599;SDS011;9947;57.722;12.012;2022-11-25T10:21:27;8.40;;;5.40;;
19599;SDS011;9947;57.722;12.012;2022-11-25T10:23:54;9.10;;;5.30;;
19599;SDS011;9947;57.722;12.012;2022-11-25T10:26:23;8.90;;;5.67;;
19599;SDS011;9947;57.722;12.012;2022-11-25T10:28:59;9.03;;;5.87;;
19599;SDS011;9947;57.722;12.012;2022-11-25T10:31:45;9.30;;;6.30;;
19599;SDS011;9947;57.722;12.012;2022-11-25T10:34:14;8.47;;;6.00;;
19599;SDS011;9947;57.722;12.012;2022-11-25T10:36:49;9.30;;;5.93;;
19599;SDS011;9947;57.722;12.012;2022-11-25T10:39:19;9.90;;;5.80;;
19599;SDS011;9947;57.722;12.012;2022-11-25T10:41:51;9.33;;;6.27;;
19599;SDS011;9947;57.722;12.012;2022-11-25T10:44:23;8.57;;;5.57;;
19599;SDS011;9947;57.722;12.012;2022-11-25T10:46:56;9.50;;;5.43;;
19599;SDS011;9947;57.722;12.012;2022-11-25T10:49:38;9.50;;;5.63;;
19599;SDS011;9947;57.722;12.012;2022-11-25T10:52:12;8.43;;;6.03;;
19599;SDS011;9947;57.722;12.012;2022-11-25T10:54:40;8.47;;;5.47;;
19599;SDS011;9947;57.722;12.012;2022-11-25T10:57:20;9.77;;;5.67;;
19599;SDS011;9947;57.722;12.012;2022-11-25T10:59:53;9.50;;;5.57;;
19599;SDS011;9947;57.722;12.012;2022-11-25T11:02:25;8.50;;;5.97;;
19599;SDS011;9947;57.722;12.012;2022-11-25T11:04:54;9.30;;;5.83;;
19599;SDS011;9947;57.722;12.012;2022-11-25T11:07:24;11.10;;;5.87;;
19599;SDS011;9947;57.722;12.012;2022-11-25T11:09:52;11.47;;;6.27;;
19599;SDS011;9947;57.722;12.012;2022-11-25T11:12:21;9.33;;;5.87;;
19599;SDS011;9947;57.722;12.012;2022-11-25T11:14:49;9.40;;;6.10;;
19599;SDS011;9947;57.722;12.012;2022-11-25T11:17:22;8.80;;;5.63;;
19599;SDS011;9947;57.722;12.012;2022-11-25T11:20:14;9.27;;;5.17;;
19599;SDS011;9947;57.722;12.012;2022-11-25T11:22:45;9.97;;;5.70;;
19599;SDS011;9947;57.722;12.012;2022-11-25T11:25:25;8.20;;;5.50;;
19599;SDS011;9947;57.722;12.012;2022-11-25T11:27:57;9.23;;;5.37;;
19599;SDS011;9947;57.722;12.012;2022-11-25T11:30:25;7.63;;;5.00;;
19599;SDS011;9947;57.722;12.012;2022-11-25T11:32:56;10.80;;;5.30;;
19599;SDS011;9947;57.722;12.012;2022-11-25T11:35:27;9.37;;;5.50;;
19599;SDS011;9947;57.722;12.012;2022-11-25T11:38:05;7.63;;;4.77;;
19599;SDS011;9947;57.722;12.012;2022-11-25T11:40:45;6.77;;;5.00;;
19599;SDS011;9947;57.722;12.012;2022-11-25T11:43:21;9.33;;;5.53;;
19599;SDS011;9947;57.722;12.012;2022-11-25T11:46:08;9.43;;;5.57;;
19599;SDS011;9947;57.722;12.012;2022-11-25T11:48:47;8.43;;;5.50;;
19599;SDS011;9947;57.722;12.012;2022-11-25T11:51:28;8.20;;;5.23;;
19599;SDS011;9947;57.722;12.012;2022-11-25T11:54:00;7.73;;;4.97;;
19599;SDS011;9947;57.722;12.012;2022-11-25T11:56:34;7.43;;;5.10;;
19599;SDS011;9947;57.722;12.012;2022-11-25T12:02:11;9.10;;;5.83;;
19599;SDS011;9947;57.722;12.012;2022-11-25T12:04:59;6.93;;;5.17;;
19599;SDS011;9947;57.722;12.012;2022-11-25T12:07:33;7.47;;;5.23;;
19599;SDS011;9947;57.722;12.012;2022-11-25T12:10:06;10.20;;;6.03;;
19599;SDS011;9947;57.722;12.012;2022-11-25T12:12:43;8.30;;;5.30;;
19599;SDS011;9947;57.722;12.012;2022-11-25T12:15:18;7.63;;;5.17;;
19599;SDS011;9947;57.722;12.012;2022-11-25T12:17:50;8.57;;;5.37;;
19599;SDS011;9947;57.722;12.012;2022-11-25T12:20:25;8.53;;;5.70;;
19599;SDS011;9947;57.722;12.012;2022-11-25T12:23:01;8.63;;;6.30;;
19599;SDS011;9947;57.722;12.012;2022-11-25T12:25:33;8.83;;;5.90;;
19599;SDS011;9947;57.722;12.012;2022-11-25T12:28:03;8.70;;;5.57;;
19599;SDS011;9947;57.722;12.012;2022-11-25T12:30:35;7.27;;;5.57;;
19599;SDS011;9947;57.722;12.012;2022-11-25T12:33:08;8.87;;;5.80;;
19599;SDS011;9947;57.722;12.012;2022-11-25T12:35:50;9.80;;;5.60;;
19599;SDS011;9947;57.722;12.012;2022-11-25T12:38:29;9.83;;;5.57;;
19599;SDS011;9947;57.722;12.012;2022-11-25T12:41:10;6.10;;;4.60;;
19599;SDS011;9947;57.722;12.012;2022-11-25T12:43:44;8.47;;;5.53;;
19599;SDS011;9947;57.722;12.012;2022-11-25T12:46:17;7.67;;;5.53;;
19599;SDS011;9947;57.722;12.012;2022-11-25T12:48:50;8.70;;;5.80;;
19599;SDS011;9947;57.722;12.012;2022-11-25T12:51:26;9.77;;;5.87;;
19599;SDS011;9947;57.722;12.012;2022-11-25T12:54:09;12.37;;;6.27;;
19599;SDS011;9947;57.722;12.012;2022-11-25T12:56:55;10.63;;;5.57;;
19599;SDS011;9947;57.722;12.012;2022-11-25T12:59:49;9.00;;;6.10;;
19599;SDS011;9947;57.722;12.012;2022-11-25T13:08:29;10.93;;;5.80;;
19599;SDS011;9947;57.722;12.012;2022-11-25T13:11:18;9.97;;;6.30;;
19599;SDS011;9947;57.722;12.012;2022-11-25T13:14:00;9.23;;;5.93;;
19599;SDS011;9947;57.722;12.012;2022-11-25T13:16:37;9.03;;;5.73;;
19599;SDS011;9947;57.722;12.012;2022-11-25T13:19:07;10.03;;;6.20;;
19599;SDS011;9947;57.722;12.012;2022-11-25T13:21:35;9.80;;;5.83;;
19599;SDS011;9947;57.722;12.012;2022-11-25T13:24:26;9.60;;;5.93;;
19599;SDS011;9947;57.722;12.012;2022-11-25T13:26:56;7.87;;;5.37;;
19599;SDS011;9947;57.722;12.012;2022-11-25T13:32:30;10.27;;;6.37;;
19599;SDS011;9947;57.722;12.012;2022-11-25T13:38:10;10.33;;;6.20;;
19599;SDS011;9947;57.722;12.012;2022-11-25T13:41:23;10.17;;;6.30;;
19599;SDS011;9947;57.722;12.012;2022-11-25T13:43:59;9.37;;;6.00;;
19599;SDS011;9947;57.722;12.012;2022-11-25T13:46:34;12.37;;;6.83;;
19599;SDS011;9947;57.722;12.012;2022-11-25T13:49:05;11.37;;;6.23;;
19599;SDS011;9947;57.722;12.012;2022-11-25T13:51:47;13.73;;;6.47;;
19599;SDS011;9947;57.722;12.012;2022-11-25T13:54:15;11.37;;;6.37;;
19599;SDS011;9947;57.722;12.012;2022-11-25T13:56:47;12.67;;;6.80;;
19599;SDS011;9947;57.722;12.012;2022-11-25T13:59:35;9.80;;;6.03;;
19599;SDS011;9947;57.722;12.012;2022-11-25T14:04:56;9.23;;;6.13;;
19599;SDS011;9947;57.722;12.012;2022-11-25T14:07:31;9.50;;;6.00;;
19599;SDS011;9947;57.722;12.012;2022-11-25T14:10:20;8.77;;;5.80;;
19599;SDS011;9947;57.722;12.012;2022-11-25T14:16:25;10.73;;;6.00;;
19599;SDS011;9947;57.722;12.012;2022-11-25T14:19:18;10.40;;;6.50;;
19599;SDS011;9947;57.722;12.012;2022-11-25T14:22:11;12.73;;;8.37;;
19599;SDS011;9947;57.722;12.012;2022-11-25T14:24:54;14.70;;;10.93;;
19599;SDS011;9947;57.722;12.012;2022-11-25T14:27:34;10.63;;;5.83;;
19599;SDS011;9947;57.722;12.012;2022-11-25T14:30:03;10.70;;;5.90;;
19599;SDS011;9947;57.722;12.012;2022-11-25T14:32:35;9.40;;;5.40;;
19599;SDS011;9947;57.722;12.012;2022-11-25T14:35:09;10.80;;;7.07;;
19599;SDS011;9947;57.722;12.012;2022-11-25T14:37:40;12.93;;;7.40;;
19599;SDS011;9947;57.722;12.012;2022-11-25T14:40:11;8.03;;;5.37;;
19599;SDS011;9947;57.722;12.012;2022-11-25T14:42:44;8.73;;;5.87;;
19599;SDS011;9947;57.722;12.012;2022-11-25T14:45:21;10.37;;;6.43;;
19599;SDS011;9947;57.722;12.012;2022-11-25T14:47:51;9.43;;;5.60;;
19599;SDS011;9947;57.722;12.012;2022-11-25T14:50:18;10.70;;;6.07;;
19599;SDS011;9947;57.722;12.012;2022-11-25T14:52:44;12.37;;;6.77;;
19599;SDS011;9947;57.722;12.012;2022-11-25T14:55:13;9.87;;;5.83;;
19599;SDS011;9947;57.722;12.012;2022-11-25T14:57:48;10.83;;;5.70;;
19599;SDS011;9947;57.722;12.012;2022-11-25T15:00:17;8.33;;;5.37;;
19599;SDS011;9947;57.722;12.012;2022-11-25T15:02:52;9.40;;;5.47;;
19599;SDS011;9947;57.722;12.012;2022-11-25T15:05:22;7.83;;;5.37;;
19599;SDS011;9947;57.722;12.012;2022-11-25T15:07:55;10.87;;;5.60;;
19599;SDS011;9947;57.722;12.012;2022-11-25T15:10:27;8.57;;;5.53;;
19599;SDS011;9947;57.722;12.012;2022-11-25T15:12:59;9.03;;;5.27;;
19599;SDS011;9947;57.722;12.012;2022-11-25T15:15:32;8.77;;;5.70;;
19599;SDS011;9947;57.722;12.012;2022-11-25T15:18:04;9.37;;;5.20;;
19599;SDS011;9947;57.722;12.012;2022-11-25T15:20:31;9.23;;;4.97;;